createdAt,value
2018-07-07T00:00:47.876Z,41.00
2018-07-07T00:04:51.547Z,41.00
2018-07-07T00:08:55.154Z,40.90
2018-07-07T00:12:58.808Z,41.00
2018-07-07T00:17:02.581Z,41.00
2018-07-07T00:21:06.247Z,41.00
2018-07-07T00:25:13.181Z,41.20
2018-07-07T00:29:16.802Z,41.10
2018-07-07T00:33:20.450Z,41.20
2018-07-07T00:37:24.130Z,41.30
2018-07-07T00:41:27.816Z,41.30
2018-07-07T00:45:31.549Z,41.40
2018-07-07T00:49:35.171Z,41.30
2018-07-07T00:53:38.891Z,41.50
2018-07-07T00:57:42.582Z,41.70
2018-07-07T01:01:46.247Z,41.80
2018-07-07T01:05:50.024Z,41.80
2018-07-07T01:09:53.692Z,41.80
2018-07-07T01:13:57.372Z,41.70
2018-07-07T01:18:01.145Z,42.20
2018-07-07T01:22:06.771Z,42.20
2018-07-07T01:26:11.125Z,42.20
2018-07-07T01:30:14.832Z,42.10
2018-07-07T01:34:18.497Z,43.00
2018-07-07T01:38:22.312Z,44.00
2018-07-07T01:42:25.980Z,43.90
2018-07-07T01:46:29.703Z,44.10
2018-07-07T01:50:33.401Z,44.80
2018-07-07T01:54:37.072Z,44.00
2018-07-07T01:58:40.811Z,45.00
2018-07-07T02:02:44.485Z,44.30
2018-07-07T02:06:48.246Z,44.30
2018-07-07T02:14:55.346Z,44.40
2018-07-07T02:18:59.029Z,44.10
2018-07-07T02:23:02.728Z,44.20
2018-07-07T02:27:06.448Z,44.60
2018-07-07T02:31:10.149Z,44.20
2018-07-07T02:35:13.793Z,44.20
2018-07-07T02:39:17.540Z,44.80
2018-07-07T02:43:21.278Z,46.30
2018-07-07T02:47:24.991Z,46.30
2018-07-07T02:51:28.728Z,45.20
2018-07-07T02:55:32.443Z,46.00
2018-07-07T02:59:36.123Z,46.80
2018-07-07T03:03:39.785Z,48.30
2018-07-07T03:07:43.456Z,47.30
2018-07-07T03:11:47.132Z,48.30
2018-07-07T03:15:50.791Z,49.30
2018-07-07T03:19:54.454Z,47.20
2018-07-07T03:23:58.135Z,48.00
2018-07-07T03:28:01.803Z,49.50
2018-07-07T03:32:05.587Z,49.10
2018-07-07T03:36:09.348Z,48.40
2018-07-07T03:40:13.049Z,48.30
2018-07-07T03:44:16.782Z,48.20
2018-07-07T03:48:20.471Z,48.00
2018-07-07T03:52:24.196Z,47.00
2018-07-07T03:56:27.877Z,47.10
2018-07-07T04:00:31.573Z,49.20
2018-07-07T04:04:35.343Z,48.70
2018-07-07T04:08:39.024Z,49.70
2018-07-07T04:12:42.720Z,48.30
2018-07-07T04:16:46.384Z,47.60
2018-07-07T04:20:50.060Z,48.80
2018-07-07T04:24:53.770Z,48.40
2018-07-07T04:28:57.427Z,48.90
2018-07-07T04:33:01.108Z,51.30
2018-07-07T04:37:05.157Z,52.20
2018-07-07T04:41:08.858Z,51.90
2018-07-07T04:45:12.524Z,50.00
2018-07-07T04:49:16.219Z,52.30
2018-07-07T04:53:19.945Z,50.00
2018-07-07T04:57:23.652Z,50.20
2018-07-07T05:01:27.373Z,51.10
2018-07-07T05:05:31.060Z,51.10
2018-07-07T05:09:34.727Z,52.40
2018-07-07T05:13:38.410Z,50.80
2018-07-07T05:17:42.119Z,53.60
2018-07-07T05:21:45.882Z,52.70
2018-07-07T05:25:49.559Z,53.40
2018-07-07T05:29:53.237Z,54.60
2018-07-07T05:33:56.938Z,54.40
2018-07-07T05:38:00.644Z,53.80
2018-07-07T05:42:04.376Z,53.10
2018-07-07T05:46:08.096Z,54.50
2018-07-07T05:50:11.888Z,56.60
2018-07-07T05:54:15.625Z,53.40
2018-07-07T05:58:19.327Z,53.20
2018-07-07T06:02:23.007Z,53.30
2018-07-07T06:06:26.690Z,54.90
2018-07-07T06:10:30.402Z,55.30
2018-07-07T06:14:34.098Z,56.20
2018-07-07T06:18:37.906Z,56.60
2018-07-07T06:22:41.764Z,56.20
2018-07-07T06:26:45.515Z,56.60
2018-07-07T06:30:49.175Z,58.80
2018-07-07T06:34:52.949Z,59.50
2018-07-07T06:38:56.635Z,57.40
2018-07-07T06:43:00.288Z,55.70
2018-07-07T06:47:04.028Z,53.50
2018-07-07T06:51:07.768Z,50.80
2018-07-07T06:55:11.495Z,50.50
2018-07-07T06:59:15.214Z,48.90
2018-07-07T07:03:18.905Z,47.80
2018-07-07T07:07:22.613Z,46.10
2018-07-07T07:11:26.289Z,45.80
2018-07-07T07:15:29.992Z,43.80
2018-07-07T07:19:33.688Z,43.80
2018-07-07T07:23:37.343Z,42.40
2018-07-07T07:27:41.067Z,42.40
2018-07-07T07:31:44.760Z,40.60
2018-07-07T07:35:48.465Z,41.30
2018-07-07T07:39:52.170Z,41.00
2018-07-07T07:43:55.831Z,39.30
2018-07-07T07:47:59.522Z,40.10
2018-07-07T07:52:03.244Z,39.90
2018-07-07T07:56:06.962Z,39.30
2018-07-07T08:00:10.699Z,38.10
2018-07-07T08:04:14.373Z,38.80
2018-07-07T08:08:18.074Z,38.70
2018-07-07T08:12:21.770Z,38.90
2018-07-07T08:16:25.476Z,39.20
2018-07-07T08:20:29.163Z,38.90
2018-07-07T08:24:32.993Z,37.40
2018-07-07T08:28:36.698Z,38.30
2018-07-07T08:32:40.414Z,38.70
2018-07-07T08:36:44.182Z,38.30
2018-07-07T08:40:47.895Z,37.80
2018-07-07T08:44:51.547Z,39.00
2018-07-07T08:48:55.223Z,38.50
2018-07-07T08:52:58.975Z,38.50
2018-07-07T08:57:02.676Z,39.20
2018-07-07T09:01:06.399Z,40.40
2018-07-07T09:05:10.044Z,40.60
2018-07-07T09:09:13.768Z,40.60
2018-07-07T09:13:17.467Z,40.30
2018-07-07T09:17:21.132Z,41.10
2018-07-07T09:21:24.876Z,40.30
2018-07-07T09:25:28.536Z,40.10
2018-07-07T09:29:32.280Z,40.70
2018-07-07T09:33:35.951Z,39.70
2018-07-07T09:37:39.632Z,40.30
2018-07-07T09:41:43.312Z,40.60
2018-07-07T09:45:46.957Z,40.80
2018-07-07T09:49:50.659Z,41.20
2018-07-07T09:53:54.446Z,42.10
2018-07-07T09:57:58.151Z,42.80
2018-07-07T10:02:01.869Z,43.60
2018-07-07T10:06:05.669Z,43.40
2018-07-07T10:10:09.759Z,43.30
2018-07-07T10:14:13.560Z,43.90
2018-07-07T10:18:17.251Z,44.10
2018-07-07T10:22:20.941Z,44.10
2018-07-07T10:26:24.656Z,44.50
2018-07-07T10:30:28.399Z,44.40
2018-07-07T10:34:32.063Z,44.40
2018-07-07T10:38:35.750Z,44.40
2018-07-07T10:42:39.524Z,44.40
2018-07-07T10:46:43.176Z,43.90
2018-07-07T10:50:46.862Z,44.60
2018-07-07T10:54:50.639Z,44.60
2018-07-07T10:58:54.436Z,44.60
2018-07-07T11:02:58.115Z,44.70
2018-07-07T11:07:01.791Z,44.40
2018-07-07T11:15:08.871Z,44.50
2018-07-07T11:19:12.549Z,44.70
2018-07-07T11:23:16.224Z,44.50
2018-07-07T11:27:19.879Z,44.60
2018-07-07T11:31:23.603Z,44.40
2018-07-07T11:35:27.315Z,43.60
2018-07-07T11:39:31.107Z,43.40
2018-07-07T11:43:34.993Z,43.80
2018-07-07T11:47:38.836Z,44.00
2018-07-07T11:51:42.528Z,43.50
2018-07-07T11:55:46.260Z,43.70
2018-07-07T11:59:49.955Z,43.60
2018-07-07T12:03:53.814Z,43.50
2018-07-07T12:08:00.902Z,44.10
2018-07-07T12:12:01.192Z,44.20
2018-07-07T12:16:04.934Z,44.00
2018-07-07T12:20:08.624Z,42.80
2018-07-07T12:24:12.437Z,42.30
2018-07-07T12:28:16.197Z,42.50
2018-07-07T12:32:19.972Z,42.90
2018-07-07T12:36:23.698Z,41.90
2018-07-07T12:40:27.475Z,41.90
2018-07-07T12:44:31.120Z,42.00
2018-07-07T12:48:34.775Z,41.80
2018-07-07T12:52:38.519Z,40.80
2018-07-07T12:56:42.250Z,40.80
2018-07-07T13:00:45.961Z,40.80
2018-07-07T13:04:49.632Z,40.50
2018-07-07T13:08:53.318Z,40.40
2018-07-07T13:12:57.153Z,40.00
2018-07-07T13:17:00.861Z,40.60
2018-07-07T13:21:04.666Z,39.70
2018-07-07T13:25:08.363Z,40.00
2018-07-07T13:29:12.017Z,39.30
2018-07-07T13:33:15.726Z,39.20
2018-07-07T13:37:19.534Z,39.70
2018-07-07T13:41:23.211Z,38.60
2018-07-07T13:45:26.895Z,39.20
2018-07-07T13:49:30.603Z,38.20
2018-07-07T13:53:35.203Z,37.30
2018-07-07T13:57:38.880Z,36.70
2018-07-07T14:01:42.547Z,38.00
2018-07-07T14:05:46.213Z,38.60
2018-07-07T14:09:49.885Z,37.00
2018-07-07T14:13:53.648Z,38.00
2018-07-07T14:17:57.341Z,36.40
2018-07-07T14:22:00.984Z,36.70
2018-07-07T14:30:08.083Z,36.40
2018-07-07T14:34:11.810Z,36.60
2018-07-07T14:38:15.503Z,36.00
2018-07-07T14:42:52.217Z,34.10
2018-07-07T14:46:55.979Z,35.00
2018-07-07T14:50:59.698Z,34.70
2018-07-07T14:55:03.572Z,35.60
2018-07-07T14:59:07.256Z,34.80
2018-07-07T15:03:10.927Z,36.00
2018-07-07T15:07:14.660Z,35.20
2018-07-07T15:11:18.331Z,35.10
2018-07-07T15:15:22.083Z,35.80
2018-07-07T15:19:25.900Z,36.00
2018-07-07T15:23:29.939Z,36.10
2018-07-07T15:27:33.741Z,36.70
2018-07-07T15:31:37.422Z,34.90
2018-07-07T15:35:41.092Z,35.30
2018-07-07T15:39:44.781Z,35.20
2018-07-07T15:43:48.433Z,34.70
2018-07-07T15:47:52.107Z,35.10
2018-07-07T15:51:55.823Z,35.50
2018-07-07T15:55:59.546Z,34.80
2018-07-07T16:00:03.310Z,34.00
2018-07-07T16:04:07.217Z,35.70
2018-07-07T16:08:10.909Z,34.60
2018-07-07T16:12:14.652Z,35.10
2018-07-07T16:16:18.493Z,35.50
2018-07-07T16:20:22.244Z,34.60
2018-07-07T16:28:22.090Z,35.10
2018-07-07T16:32:25.875Z,35.90
2018-07-07T16:36:29.614Z,34.60
2018-07-07T16:40:33.496Z,34.30
2018-07-07T16:44:37.649Z,35.30
2018-07-07T16:48:41.483Z,36.60
2018-07-07T16:52:45.275Z,36.10
2018-07-07T16:56:49.047Z,35.80
2018-07-07T17:00:52.847Z,34.50
2018-07-07T17:04:56.540Z,34.70
2018-07-07T17:09:00.337Z,36.00
2018-07-07T17:13:04.120Z,35.80
2018-07-07T17:17:07.915Z,36.00
2018-07-07T17:21:11.718Z,35.70
2018-07-07T17:25:15.556Z,35.60
2018-07-07T17:29:19.368Z,36.20
2018-07-07T17:33:23.095Z,36.30
2018-07-07T17:37:27.055Z,36.50
2018-07-07T17:41:30.817Z,37.30
2018-07-07T17:45:34.539Z,38.00
2018-07-07T17:49:40.880Z,38.40
2018-07-07T17:53:44.679Z,38.40
2018-07-07T17:57:48.457Z,38.70
2018-07-07T18:01:52.276Z,38.90
2018-07-07T18:05:55.957Z,39.10
2018-07-07T18:09:59.689Z,39.10
2018-07-07T18:14:03.391Z,39.20
2018-07-07T18:18:07.132Z,39.40
2018-07-07T18:22:10.834Z,39.60
2018-07-07T18:26:14.545Z,39.80
2018-07-07T18:30:18.309Z,39.70
2018-07-07T18:34:22.019Z,40.20
2018-07-07T18:38:25.741Z,40.10
2018-07-07T18:42:29.423Z,40.20
2018-07-07T18:46:33.114Z,40.30
2018-07-07T18:50:36.820Z,40.30
2018-07-07T18:54:40.529Z,40.50
2018-07-07T18:58:44.260Z,40.80
2018-07-07T19:02:47.962Z,41.10
2018-07-07T19:06:51.636Z,40.80
2018-07-07T19:10:55.376Z,41.00
2018-07-07T19:15:04.307Z,40.70
2018-07-07T19:19:08.021Z,41.30
2018-07-07T19:23:16.855Z,41.40
2018-07-07T19:27:20.512Z,41.40
2018-07-07T19:31:24.225Z,42.40
2018-07-07T19:35:33.205Z,42.30
2018-07-07T19:39:36.948Z,42.80
2018-07-07T19:43:40.644Z,43.00
2018-07-07T19:47:44.434Z,42.60
2018-07-07T19:51:48.124Z,43.40
2018-07-07T19:55:51.930Z,43.50
2018-07-07T19:59:56.027Z,44.20
2018-07-07T20:03:59.791Z,43.00
2018-07-07T20:08:03.459Z,43.70
2018-07-07T20:12:07.151Z,43.70
2018-07-07T20:16:21.418Z,44.00
2018-07-07T20:20:37.009Z,44.40
2018-07-07T20:24:40.708Z,44.90
2018-07-07T20:28:49.600Z,45.40
2018-07-07T20:32:53.305Z,44.60
2018-07-07T20:36:57.077Z,45.20
2018-07-07T20:41:00.751Z,45.50
2018-07-07T20:45:04.522Z,46.00
2018-07-07T20:49:08.158Z,46.10
2018-07-07T20:53:11.913Z,45.90
2018-07-07T20:57:15.588Z,45.80
2018-07-07T21:01:19.513Z,45.20
2018-07-07T21:05:23.240Z,45.40
2018-07-07T21:09:26.919Z,45.70
2018-07-07T21:13:30.640Z,45.30
2018-07-07T21:17:34.391Z,45.80
2018-07-07T21:21:38.084Z,45.60
2018-07-07T21:25:41.799Z,45.20
2018-07-07T21:29:45.556Z,45.70
2018-07-07T21:33:49.261Z,45.30
2018-07-07T21:37:53.015Z,45.30
2018-07-07T21:41:56.693Z,45.00
2018-07-07T21:46:00.487Z,45.10
2018-07-07T21:50:04.461Z,45.00
2018-07-07T21:54:08.197Z,44.90
2018-07-07T21:58:17.167Z,44.90
2018-07-07T22:02:26.227Z,45.20
2018-07-07T22:06:35.260Z,45.30
2018-07-07T22:10:38.961Z,45.10
2018-07-07T22:14:42.635Z,45.50
2018-07-07T22:18:46.317Z,46.00
2018-07-07T22:22:50.037Z,46.00
2018-07-07T22:27:00.054Z,45.70
2018-07-07T22:31:03.668Z,46.40
2018-07-07T22:35:12.951Z,45.90
2018-07-07T22:39:16.684Z,46.90
2018-07-07T22:43:20.357Z,47.10
2018-07-07T22:47:24.054Z,46.70
2018-07-07T22:51:27.735Z,47.10
2018-07-07T22:55:31.479Z,46.70
2018-07-07T22:59:35.203Z,47.70
2018-07-07T23:03:38.935Z,47.90
2018-07-07T23:07:42.725Z,47.30
2018-07-07T23:11:46.409Z,48.50
2018-07-07T23:15:50.088Z,47.70
2018-07-07T23:19:53.882Z,47.30
2018-07-07T23:23:57.889Z,48.40
2018-07-07T23:28:01.571Z,47.90
2018-07-07T23:32:05.218Z,47.70
2018-07-07T23:36:08.943Z,48.30
2018-07-07T23:40:12.689Z,47.30
2018-07-07T23:44:16.416Z,47.70
2018-07-07T23:48:20.127Z,47.30
2018-07-07T23:52:23.881Z,47.30
2018-07-07T23:56:27.596Z,47.10
